Murdochville, Canada
Current Conditions -  °F | °C
As of 1:00 AM on Sunday 23 Nov 2014 (Local Time) from CYGP Reporting Station
Overcast Overcast  
Wind Chill: -8°   Ceiling: 4000
Heat Index: -3°   Visibility: 15mi
Dew Point: -7°   Wind: 10mph
Humidity: 74%   Direction: 270°W
Pressure: 29.64"   Gusts: NA
Location:  48.97°N, 65.52°W
Report Text: CYGP 230600Z 27009KT 15SM SCT025 OVC040 M03/M07 A2964 RMK SC3SC5 SLP041
Loading
Personal Weather Stations






























Interactive Weather Map New forecast layout! Learn more

10-Day Weather Forecast

Advertisements
Track Severe Weather on mobile